createdAt,value
2023-05-09T00:00:07.169Z,101482.75
2023-05-09T00:05:11.103Z,101479.34
2023-05-09T00:10:16.653Z,101478.03
2023-05-09T00:15:20.277Z,101471.75
2023-05-09T00:20:24.194Z,101462.75
2023-05-09T00:25:29.575Z,101451.16
2023-05-09T00:30:33.209Z,101458.28
2023-05-09T00:35:36.833Z,101456.31
2023-05-09T00:40:42.105Z,101459.59
2023-05-09T00:45:46.008Z,101456.25
2023-05-09T00:50:49.704Z,101464.88
2023-05-09T00:55:56.018Z,101461.19
2023-05-09T01:00:59.644Z,101451.59
2023-05-09T01:06:07.697Z,101459.53
2023-05-09T01:11:21.621Z,101454.25
2023-05-09T01:16:32.078Z,101458.28
2023-05-09T01:21:39.052Z,101463.84
2023-05-09T01:27:05.700Z,101470.25
2023-05-09T01:32:14.663Z,101453.97
2023-05-09T01:37:23.044Z,101457.34
2023-05-09T01:42:29.433Z,101460.34
2023-05-09T01:47:35.526Z,101461.56
2023-05-09T01:52:40.935Z,101467.28
2023-05-09T01:57:46.215Z,101462.97
2023-05-09T02:02:52.746Z,101469.25
2023-05-09T02:07:57.757Z,101472.13
2023-05-09T02:13:01.497Z,101482.44
2023-05-09T02:18:06.978Z,101484.97
2023-05-09T02:23:10.682Z,101490.19
2023-05-09T02:28:15.125Z,101491.19
2023-05-09T02:33:21.355Z,101489.31
2023-05-09T02:38:25.682Z,101501.97
2023-05-09T02:43:29.292Z,101498.47
2023-05-09T02:48:34.557Z,101488.63
2023-05-09T02:53:38.162Z,101491.06
2023-05-09T02:58:41.751Z,101488.44
2023-05-09T03:03:47.193Z,101496.50
2023-05-09T03:08:50.912Z,101494.53
2023-05-09T03:13:54.587Z,101491.31
2023-05-09T03:18:59.845Z,101489.16
2023-05-09T03:24:03.524Z,101495.16
2023-05-09T03:29:07.260Z,101500.28
2023-05-09T03:34:12.730Z,101490.31
2023-05-09T03:39:16.377Z,101495.84
2023-05-09T03:44:19.967Z,101496.72
2023-05-09T03:49:25.284Z,101503.91
2023-05-09T03:54:28.863Z,101506.22
2023-05-09T03:59:32.448Z,101507.19
2023-05-09T04:04:37.757Z,101520.47
2023-05-09T04:09:41.471Z,101504.84
2023-05-09T04:14:47.384Z,101513.47
2023-05-09T04:19:55.028Z,101512.16
2023-05-09T04:24:58.578Z,101511.13
2023-05-09T04:30:02.229Z,101518.28
2023-05-09T04:35:08.541Z,101524.59
2023-05-09T04:40:12.948Z,101528.19
2023-05-09T04:45:16.921Z,101531.63
2023-05-09T04:50:22.572Z,101541.25
2023-05-09T04:55:26.261Z,101552.69
2023-05-09T05:00:29.880Z,101547.66
2023-05-09T05:05:37.245Z,101546.03
2023-05-09T05:10:41.309Z,101548.75
2023-05-09T05:15:44.965Z,101543.66
2023-05-09T05:20:50.232Z,101543.78
2023-05-09T05:25:53.885Z,101541.25
2023-05-09T05:30:57.505Z,101544.94
2023-05-09T05:36:02.769Z,101532.00
2023-05-09T05:41:06.515Z,101535.88
2023-05-09T05:46:10.227Z,101543.44
2023-05-09T05:51:15.661Z,101542.88
2023-05-09T05:56:19.626Z,101536.81
2023-05-09T06:01:23.236Z,101541.38
2023-05-09T06:06:29.734Z,101532.16
2023-05-09T06:11:33.363Z,101533.88
2023-05-09T06:16:37.071Z,101530.53
2023-05-09T06:21:42.395Z,101526.31
2023-05-09T06:26:46.084Z,101518.41
2023-05-09T06:31:49.858Z,101516.75
2023-05-09T06:36:55.181Z,101507.03
2023-05-09T06:41:58.784Z,101498.88
2023-05-09T06:47:02.461Z,101490.00
2023-05-09T06:52:07.862Z,101484.69
2023-05-09T06:57:11.538Z,101475.88
2023-05-09T07:02:15.149Z,101476.75
2023-05-09T07:07:20.385Z,101476.72
2023-05-09T07:12:23.957Z,101473.19
2023-05-09T07:17:27.704Z,101465.38
2023-05-09T07:22:34.794Z,101457.63
2023-05-09T07:27:40.062Z,101461.91
2023-05-09T07:32:43.810Z,101456.66
2023-05-09T07:37:49.126Z,101460.13
2023-05-09T07:42:52.701Z,101456.78
2023-05-09T07:47:56.390Z,101455.06
2023-05-09T07:53:01.727Z,101456.75
2023-05-09T07:58:05.372Z,101466.41
2023-05-09T08:03:09.100Z,101461.22
2023-05-09T08:08:14.468Z,101464.66
2023-05-09T08:13:18.184Z,101458.72
2023-05-09T08:18:21.825Z,101447.56
2023-05-09T08:23:27.290Z,101444.03
2023-05-09T08:28:31.594Z,101449.19
2023-05-09T08:33:35.258Z,101445.69
2023-05-09T08:38:40.546Z,101449.16
2023-05-09T08:43:44.953Z,101447.41
2023-05-09T08:48:48.776Z,101443.13
2023-05-09T08:53:54.780Z,101435.22
2023-05-09T08:58:59.853Z,101434.44
2023-05-09T09:04:06.585Z,101429.97
2023-05-09T09:09:14.309Z,101419.66
2023-05-09T09:14:25.371Z,101411.91
2023-05-09T09:19:32.001Z,101410.25
2023-05-09T09:24:38.037Z,101406.13
2023-05-09T09:29:40.856Z,101397.41
2023-05-09T09:34:44.441Z,101399.00
2023-05-09T09:39:57.553Z,101405.09
2023-05-09T09:45:04.390Z,101394.78
2023-05-09T09:50:16.378Z,101387.84
2023-05-09T09:55:23.958Z,101386.97
2023-05-09T10:00:29.147Z,101391.31
2023-05-09T10:05:32.987Z,101388.72
2023-05-09T10:10:39.070Z,101386.97
2023-05-09T10:15:53.190Z,101386.94
2023-05-09T10:20:58.084Z,101393.06
2023-05-09T10:26:10.786Z,101386.06
2023-05-09T10:31:19.594Z,101396.59
2023-05-09T10:36:24.068Z,101406.56
2023-05-09T10:41:29.733Z,101409.38
2023-05-09T10:46:34.197Z,101396.59
2023-05-09T10:51:38.027Z,101396.69
2023-05-09T10:56:43.299Z,101401.09
2023-05-09T11:01:47.114Z,101390.81
2023-05-09T11:06:52.427Z,101389.00
2023-05-09T11:11:58.647Z,101383.00
2023-05-09T11:17:02.779Z,101384.06
2023-05-09T11:22:17.095Z,101376.53
2023-05-09T11:27:24.401Z,101380.25
2023-05-09T11:32:32.519Z,101383.50
2023-05-09T11:37:45.088Z,101378.31
2023-05-09T11:42:51.921Z,101384.63
2023-05-09T11:47:55.590Z,101395.06
2023-05-09T11:52:59.182Z,101386.38
2023-05-09T11:58:08.543Z,101378.53
2023-05-09T12:03:12.394Z,101380.38
2023-05-09T12:08:17.005Z,101369.94
2023-05-09T12:13:22.302Z,101363.09
2023-05-09T12:18:25.944Z,101357.84
2023-05-09T12:23:29.510Z,101350.94
2023-05-09T12:28:36.078Z,101347.53
2023-05-09T12:33:40.529Z,101356.25
2023-05-09T12:38:55.088Z,101359.72
2023-05-09T12:44:00.404Z,101359.72
2023-05-09T12:49:04.007Z,101371.13
2023-05-09T12:54:08.427Z,101373.75
2023-05-09T12:59:14.129Z,101368.66
2023-05-09T13:04:21.550Z,101371.28
2023-05-09T13:09:26.215Z,101364.31
2023-05-09T13:14:31.563Z,101373.88
2023-05-09T13:19:35.147Z,101366.06
2023-05-09T13:24:38.732Z,101370.47
2023-05-09T13:29:43.958Z,101379.16
2023-05-09T13:34:47.640Z,101374.84
2023-05-09T13:39:51.259Z,101382.66
2023-05-09T13:44:56.605Z,101382.50
2023-05-09T13:50:00.239Z,101385.97
2023-05-09T13:55:03.900Z,101393.69
2023-05-09T14:00:13.254Z,101392.81
2023-05-09T14:05:18.134Z,101405.00
2023-05-09T14:10:22.034Z,101398.00
2023-05-09T14:15:27.418Z,101407.47
2023-05-09T14:20:31.076Z,101416.00
2023-05-09T14:25:34.707Z,101412.34
2023-05-09T14:30:40.004Z,101412.84
2023-05-09T14:35:43.625Z,101419.59
2023-05-09T14:40:47.269Z,101416.84
2023-05-09T14:45:52.737Z,101430.56
2023-05-09T14:50:56.399Z,101419.66
2023-05-09T14:56:00.001Z,101418.19
2023-05-09T15:01:05.383Z,101413.16
2023-05-09T15:06:09.107Z,101403.72
2023-05-09T15:11:12.688Z,101409.22
2023-05-09T15:16:18.079Z,101399.31
2023-05-09T15:21:23.823Z,101403.13
2023-05-09T15:26:27.495Z,101404.53
2023-05-09T15:31:33.719Z,101394.47
2023-05-09T15:36:37.437Z,101394.69
2023-05-09T15:41:41.114Z,101386.84
2023-05-09T15:46:46.333Z,101375.25
2023-05-09T15:51:49.972Z,101371.94
2023-05-09T15:56:53.568Z,101367.94
2023-05-09T16:01:58.890Z,101362.66
2023-05-09T16:07:02.519Z,101369.13
2023-05-09T16:12:06.517Z,101358.22
2023-05-09T16:17:12.803Z,101368.19
2023-05-09T16:22:16.436Z,101364.94
2023-05-09T16:27:20.056Z,101363.00
2023-05-09T16:32:26.199Z,101367.72
2023-05-09T16:37:29.862Z,101360.72
2023-05-09T16:42:33.561Z,101359.34
2023-05-09T16:47:39.061Z,101358.66
2023-05-09T16:52:42.705Z,101353.81
2023-05-09T16:57:46.391Z,101342.72
2023-05-09T17:02:51.729Z,101344.75
2023-05-09T17:07:54.574Z,101346.28
2023-05-09T17:12:58.285Z,101347.78
2023-05-09T17:18:03.658Z,101346.06
2023-05-09T17:23:06.537Z,101337.97
2023-05-09T17:28:10.184Z,101328.81
2023-05-09T17:33:15.459Z,101324.50
2023-05-09T17:38:19.132Z,101325.94
2023-05-09T17:43:23.545Z,101326.78
2023-05-09T17:48:28.816Z,101335.06
2023-05-09T17:53:31.681Z,101337.53
2023-05-09T17:58:35.312Z,101324.41
2023-05-09T18:03:40.656Z,101320.28
2023-05-09T18:08:44.348Z,101323.09
2023-05-09T18:13:48.037Z,101331.44
2023-05-09T18:18:53.328Z,101323.66
2023-05-09T18:23:56.242Z,101307.22
2023-05-09T18:28:59.838Z,101299.44
2023-05-09T18:34:05.298Z,101303.22
2023-05-09T18:39:08.931Z,101305.53
2023-05-09T18:44:12.630Z,101309.50
2023-05-09T18:49:17.895Z,101315.66
2023-05-09T18:54:20.766Z,101312.34
2023-05-09T18:59:24.509Z,101308.25
2023-05-09T19:04:29.900Z,101300.19
2023-05-09T19:09:33.541Z,101296.41
2023-05-09T19:14:37.140Z,101284.03
2023-05-09T19:19:42.339Z,101281.69
2023-05-09T19:24:45.152Z,101278.41
2023-05-09T19:29:49.913Z,101279.59
2023-05-09T19:34:57.311Z,101282.75
2023-05-09T19:40:00.930Z,101275.75
2023-05-09T19:45:05.485Z,101269.63
2023-05-09T19:50:11.766Z,101266.25
2023-05-09T19:55:15.366Z,101251.03
2023-05-09T20:00:19.807Z,101243.69
2023-05-09T20:05:25.136Z,101246.94
2023-05-09T20:10:28.750Z,101252.88
2023-05-09T20:15:32.316Z,101236.06
2023-05-09T20:20:37.574Z,101233.38
2023-05-09T20:25:41.197Z,101237.34
2023-05-09T20:30:44.850Z,101235.31
2023-05-09T20:35:51.063Z,101235.34
2023-05-09T20:40:54.674Z,101223.84
2023-05-09T20:45:58.363Z,101215.78
2023-05-09T20:51:03.735Z,101210.50
2023-05-09T20:56:07.447Z,101216.16
2023-05-09T21:01:11.147Z,101205.13
2023-05-09T21:06:16.453Z,101203.16
2023-05-09T21:11:20.027Z,101209.19
2023-05-09T21:16:24.272Z,101213.38
2023-05-09T21:21:29.546Z,101212.00
2023-05-09T21:26:33.139Z,101202.31
2023-05-09T21:31:36.936Z,101197.84
2023-05-09T21:36:42.534Z,101193.66
2023-05-09T21:41:46.165Z,101189.63
2023-05-09T21:46:49.895Z,101186.44
2023-05-09T21:51:55.268Z,101185.34
2023-05-09T21:56:58.857Z,101186.69
2023-05-09T22:02:02.504Z,101181.97
2023-05-09T22:07:07.796Z,101185.84
2023-05-09T22:12:11.411Z,101187.00
2023-05-09T22:17:15.016Z,101181.38
2023-05-09T22:22:20.308Z,101180.63
2023-05-09T22:27:23.903Z,101193.56
2023-05-09T22:32:27.521Z,101188.53
2023-05-09T22:37:32.832Z,101193.69
2023-05-09T22:42:36.456Z,101190.72
2023-05-09T22:47:40.092Z,101197.38
2023-05-09T22:52:45.375Z,101179.94
2023-05-09T22:57:48.192Z,101183.66
2023-05-09T23:02:51.891Z,101180.81
2023-05-09T23:07:57.317Z,101174.53
2023-05-09T23:13:00.207Z,101177.88
2023-05-09T23:18:03.870Z,101178.72
2023-05-09T23:23:09.629Z,101175.94
2023-05-09T23:28:13.294Z,101174.00
2023-05-09T23:33:16.884Z,101179.25
2023-05-09T23:38:22.199Z,101181.38
2023-05-09T23:43:25.146Z,101180.13
2023-05-09T23:48:28.808Z,101180.69
2023-05-09T23:53:35.544Z,101179.22
2023-05-09T23:58:39.146Z,101185.22
